Time;durP1;ratioP1;P1;durP2;ratioP2;P2;SDS_P1;SDS_P2;PMS_P1;PMS_P2;Temp;Humidity;BMP_temperature;BMP_pressure;BME280_temperature;BME280_humidity;BME280_pressure;Samples;Min_cycle;Max_cycle;Signal;HPM_P1;HPM_P2
2022/07/10 00:02:05;;;;;;;4.53;2.85;;;20.20;99.90;;;;;;5054366;28;20024;-62
2022/07/10 00:04:31;;;;;;;3.15;2.70;;;20.10;99.90;;;;;;5052431;28;20021;-63
2022/07/10 00:06:58;;;;;;;4.47;3.22;;;20.20;99.90;;;;;;5052762;28;20025;-63
2022/07/10 00:09:24;;;;;;;4.15;2.53;;;20.10;99.90;;;;;;5054007;28;20393;-63
2022/07/10 00:11:49;;;;;;;;;;;20.10;99.90;;;;;;5054183;28;20040;-63
2022/07/10 00:14:15;;;;;;;3.75;3.40;;;20.00;99.90;;;;;;5053685;28;19909;-63
2022/07/10 00:16:41;;;;;;;5.90;3.70;;;20.00;99.90;;;;;;5054294;28;20059;-63
2022/07/10 00:19:06;;;;;;;4.88;3.35;;;20.00;99.90;;;;;;5054055;28;20065;-62
2022/07/10 00:21:32;;;;;;;4.95;3.40;;;20.00;99.90;;;;;;5054143;28;20025;-62
2022/07/10 00:23:57;;;;;;;5.55;3.08;;;20.00;99.90;;;;;;5053657;28;20073;-63
2022/07/10 00:26:23;;;;;;;4.57;3.45;;;20.00;99.90;;;;;;5053598;28;20040;-63
2022/07/10 00:28:49;;;;;;;3.60;3.30;;;20.00;99.90;;;;;;5052350;28;20170;-63
2022/07/10 00:31:14;;;;;;;3.30;3.00;;;20.00;99.90;;;;;;5053421;28;20032;-63
2022/07/10 00:33:40;;;;;;;3.92;3.53;;;20.00;99.90;;;;;;5052005;28;20033;-63
2022/07/10 00:36:06;;;;;;;5.10;3.53;;;20.00;99.90;;;;;;5053581;28;20465;-63
2022/07/10 00:38:32;;;;;;;4.53;3.28;;;20.00;99.90;;;;;;5053242;28;20025;-63
2022/07/10 00:40:58;;;;;;;4.18;3.13;;;20.10;99.90;;;;;;5053250;28;20055;-63
2022/07/10 00:43:23;;;;;;;3.83;3.53;;;20.20;99.90;;;;;;5053130;28;20426;-62
2022/07/10 00:45:49;;;;;;;6.10;4.05;;;20.20;99.90;;;;;;5053182;28;20112;-63
2022/07/10 00:48:15;;;;;;;3.85;3.45;;;20.20;99.90;;;;;;5053091;28;20440;-63
2022/07/10 00:50:44;;;;;;;4.55;3.40;;;20.20;99.90;;;;;;5053494;28;20041;-63
2022/07/10 00:53:10;;;;;;;4.05;3.20;;;20.10;99.90;;;;;;5052947;28;20045;-62
2022/07/10 00:55:37;;;;;;;4.30;3.40;;;20.00;99.90;;;;;;5053519;28;20488;-63
2022/07/10 00:58:08;;;;;;;5.50;3.47;;;19.90;99.90;;;;;;5053233;28;20112;-63
2022/07/10 01:00:37;;;;;;;5.35;3.28;;;19.80;99.90;;;;;;5051984;28;20468;-63
2022/07/10 01:03:03;;;;;;;3.70;3.10;;;19.80;99.90;;;;;;5052138;28;20024;-63
2022/07/10 01:05:29;;;;;;;4.45;3.28;;;19.80;99.90;;;;;;5053386;28;20414;-63
2022/07/10 01:07:55;;;;;;;5.70;2.95;;;19.70;99.90;;;;;;5053803;28;20029;-63
2022/07/10 01:10:20;;;;;;;3.38;2.80;;;19.60;99.90;;;;;;5053570;28;20025;-63
2022/07/10 01:12:47;;;;;;;4.03;2.70;;;19.50;99.90;;;;;;5053886;28;20033;-63
2022/07/10 01:15:12;;;;;;;5.57;2.55;;;19.50;99.90;;;;;;5053232;28;20036;-63
2022/07/10 01:17:38;;;;;;;5.70;3.00;;;19.50;99.90;;;;;;5053351;28;20389;-63
2022/07/10 01:20:08;;;;;;;5.07;3.05;;;19.50;99.90;;;;;;5053141;28;20059;-63
2022/07/10 01:22:36;;;;;;;5.10;2.58;;;19.40;99.90;;;;;;5053165;28;20494;-63
2022/07/10 01:25:02;;;;;;;3.92;2.60;;;19.30;99.90;;;;;;5051516;28;20033;-63
2022/07/10 01:27:28;;;;;;;4.38;2.50;;;19.30;99.90;;;;;;5052832;28;20021;-63
2022/07/10 01:29:54;;;;;;;3.65;2.08;;;19.20;99.90;;;;;;5053347;28;20104;-63
2022/07/10 01:32:19;;;;;;;;;;;19.20;99.90;;;;;;5051957;28;20040;-62
2022/07/10 01:34:46;;;;;;;4.20;2.15;;;19.10;99.90;;;;;;5052881;28;19904;-63
2022/07/10 01:37:12;;;;;;;3.17;2.10;;;19.20;99.90;;;;;;5052873;28;20473;-63
2022/07/10 01:39:38;;;;;;;6.95;2.60;;;19.10;99.90;;;;;;5053352;28;20029;-63
2022/07/10 01:42:04;;;;;;;3.95;2.30;;;19.10;99.90;;;;;;5052559;28;20028;-63
2022/07/10 01:44:29;;;;;;;4.93;2.55;;;19.00;99.90;;;;;;5051336;28;20032;-63
2022/07/10 01:46:55;;;;;;;3.80;2.10;;;19.00;99.90;;;;;;5052911;28;20482;-62
2022/07/10 01:49:20;;;;;;;5.85;2.17;;;18.90;99.90;;;;;;5052998;28;20366;-63
2022/07/10 01:51:46;;;;;;;3.55;2.08;;;18.90;99.90;;;;;;5051225;28;20029;-63
2022/07/10 01:54:11;;;;;;;6.28;2.00;;;18.90;99.90;;;;;;5052706;28;20025;-63
2022/07/10 01:56:38;;;;;;;2.25;1.90;;;18.80;99.90;;;;;;5053087;28;20497;-62
2022/07/10 01:59:04;;;;;;;;;;;18.70;99.90;;;;;;5053367;28;20103;-63
2022/07/10 02:01:30;;;;;;;5.93;3.65;;;18.70;99.90;;;;;;5054100;28;19944;-63
2022/07/10 02:06:41;;;;;;;2.83;1.50;;;18.60;99.90;;;;;;5056680;28;20032;-63
2022/07/10 02:09:06;;;;;;;4.45;1.70;;;18.60;99.90;;;;;;5056071;28;20021;-62
2022/07/10 02:11:32;;;;;;;2.90;1.63;;;18.60;99.90;;;;;;5055967;28;20500;-62
2022/07/10 02:13:57;;;;;;;4.88;2.00;;;18.50;99.90;;;;;;5054737;28;20025;-63
2022/07/10 02:16:23;;;;;;;3.33;1.80;;;18.40;99.90;;;;;;5055911;28;20029;-63
2022/07/10 02:18:48;;;;;;;3.63;1.63;;;18.40;99.90;;;;;;5056251;28;20060;-63
2022/07/10 02:21:14;;;;;;;3.95;1.60;;;18.40;99.90;;;;;;5056082;28;20466;-63
2022/07/10 02:23:40;;;;;;;7.13;2.22;;;18.40;99.90;;;;;;5056074;28;20055;-63
2022/07/10 02:26:06;;;;;;;5.95;1.73;;;18.40;99.90;;;;;;5056023;28;20021;-63
2022/07/10 02:28:32;;;;;;;5.80;1.83;;;18.20;99.90;;;;;;5056905;28;20365;-63
2022/07/10 02:30:58;;;;;;;7.72;2.10;;;18.20;99.90;;;;;;5055905;28;20040;-63
2022/07/10 02:33:24;;;;;;;5.82;1.65;;;18.20;99.90;;;;;;5056440;28;20029;-62
2022/07/10 02:35:50;;;;;;;;;;;18.10;99.90;;;;;;5056428;28;20029;-62
2022/07/10 02:38:15;;;;;;;2.70;1.60;;;18.00;99.90;;;;;;5054465;28;20011;-62
2022/07/10 02:40:41;;;;;;;3.75;1.50;;;18.00;99.90;;;;;;5054728;28;20025;-62
2022/07/10 02:43:07;;;;;;;3.72;1.95;;;17.90;99.90;;;;;;5054762;28;20040;-62
2022/07/10 02:45:32;;;;;;;4.50;2.15;;;17.90;99.90;;;;;;5055726;28;20033;-63
2022/07/10 02:47:58;;;;;;;2.60;1.48;;;17.80;99.90;;;;;;5055439;28;20113;-63
2022/07/10 02:50:23;;;;;;;2.97;1.65;;;17.80;99.90;;;;;;5055873;28;20065;-63
2022/07/10 02:52:49;;;;;;;7.32;2.10;;;17.80;99.90;;;;;;5055187;28;20041;-63
2022/07/10 02:55:14;;;;;;;3.95;1.58;;;17.70;99.90;;;;;;5055095;28;20409;-63
2022/07/10 02:57:40;;;;;;;3.97;1.50;;;17.80;99.90;;;;;;5055818;28;20373;-63
2022/07/10 03:00:06;;;;;;;2.13;1.67;;;17.70;99.90;;;;;;5055118;28;20032;-63
2022/07/10 03:02:32;;;;;;;3.70;1.45;;;17.70;99.90;;;;;;5055859;28;20021;-63
2022/07/10 03:04:57;;;;;;;5.05;1.40;;;17.70;99.90;;;;;;5055745;28;20432;-63
2022/07/10 03:07:23;;;;;;;3.35;1.40;;;17.70;99.90;;;;;;5055847;28;20061;-63
2022/07/10 03:09:49;;;;;;;5.53;1.60;;;17.70;99.90;;;;;;5055785;28;20437;-64
2022/07/10 03:12:14;;;;;;;4.47;1.90;;;17.70;99.90;;;;;;5055045;28;20025;-63
2022/07/10 03:14:40;;;;;;;5.05;1.80;;;17.60;99.90;;;;;;5054990;28;20385;-62
2022/07/10 03:17:06;;;;;;;2.65;1.58;;;17.70;99.90;;;;;;5053653;28;20027;-63
2022/07/10 03:19:33;;;;;;;4.82;1.95;;;17.60;99.90;;;;;;5054997;28;20021;-63
2022/07/10 03:21:58;;;;;;;3.03;1.55;;;17.70;99.90;;;;;;5055224;28;20021;-63
2022/07/10 03:24:24;;;;;;;5.57;1.88;;;17.80;99.90;;;;;;5053477;28;20121;-63
2022/07/10 03:26:49;;;;;;;4.93;1.50;;;17.90;99.90;;;;;;5054971;28;20025;-63
2022/07/10 03:29:15;;;;;;;2.53;1.40;;;17.80;99.90;;;;;;5055290;28;20079;-63
2022/07/10 03:31:41;;;;;;;2.65;1.27;;;17.70;99.90;;;;;;5053333;28;20025;-63
2022/07/10 03:34:06;;;;;;;2.50;1.10;;;17.60;99.90;;;;;;5054615;28;20513;-63
2022/07/10 03:36:32;;;;;;;3.20;1.37;;;17.50;99.90;;;;;;5055390;28;20429;-63
2022/07/10 03:38:58;;;;;;;3.93;1.20;;;17.50;99.90;;;;;;5054414;28;20605;-63
2022/07/10 03:41:23;;;;;;;4.20;1.40;;;17.40;99.90;;;;;;5054683;28;20681;-63
2022/07/10 03:43:49;;;;;;;3.83;1.30;;;17.40;99.90;;;;;;5054504;28;20112;-63
2022/07/10 03:46:14;;;;;;;4.80;1.48;;;17.50;99.90;;;;;;5055031;28;20119;-61
2022/07/10 03:48:40;;;;;;;2.65;1.30;;;17.50;99.90;;;;;;5054596;28;20032;-62
2022/07/10 03:51:05;;;;;;;1.98;1.30;;;17.50;99.90;;;;;;5055224;28;20482;-62
2022/07/10 03:53:31;;;;;;;4.95;1.67;;;17.40;99.90;;;;;;5053966;28;20112;-61
2022/07/10 03:55:56;;;;;;;1.77;1.20;;;17.40;99.90;;;;;;5054401;28;20025;-62
2022/07/10 03:58:22;;;;;;;3.00;1.40;;;17.40;99.90;;;;;;5053312;28;20270;-62
2022/07/10 04:00:47;;;;;;;2.97;1.27;;;17.40;99.90;;;;;;5052983;28;20720;-62
2022/07/10 04:03:13;;;;;;;1.85;1.23;;;17.40;99.90;;;;;;5054247;28;20025;-62
2022/07/10 04:05:39;;;;;;;5.15;1.58;;;17.40;99.90;;;;;;5054043;28;20115;-62
2022/07/10 04:08:05;;;;;;;8.20;2.00;;;17.40;99.90;;;;;;5054304;28;20052;-62
2022/07/10 04:10:31;;;;;;;4.78;1.38;;;17.50;99.90;;;;;;5052951;28;20512;-62
2022/07/10 04:12:57;;;;;;;;;;;17.40;99.90;;;;;;5053210;28;20143;-62
2022/07/10 04:15:23;;;;;;;4.13;1.20;;;17.30;99.90;;;;;;5054101;28;20395;-62
2022/07/10 04:17:49;;;;;;;4.35;1.40;;;17.30;99.90;;;;;;5054753;28;20021;-62
2022/07/10 04:20:15;;;;;;;;;;;17.30;99.90;;;;;;5053600;28;20056;-62
2022/07/10 04:22:41;;;;;;;3.85;1.67;;;17.30;99.90;;;;;;5054087;28;19905;-61
2022/07/10 04:25:07;;;;;;;5.65;1.48;;;17.40;99.90;;;;;;5053899;28;20029;-62
2022/07/10 04:27:33;;;;;;;2.40;1.45;;;17.30;99.90;;;;;;5054258;28;20033;-62
2022/07/10 04:29:58;;;;;;;4.43;1.52;;;17.40;99.90;;;;;;5052430;28;20473;-61
2022/07/10 04:32:24;;;;;;;4.32;1.30;;;17.50;99.90;;;;;;5052406;28;20090;-62
2022/07/10 04:34:49;;;;;;;4.53;1.45;;;17.60;99.90;;;;;;5053603;28;20036;-61
2022/07/10 04:37:15;;;;;;;5.20;1.58;;;17.70;99.90;;;;;;5053726;28;20025;-62
2022/07/10 04:39:41;;;;;;;5.47;1.30;;;17.70;99.90;;;;;;5052367;28;20139;-62
2022/07/10 04:42:08;;;;;;;3.83;1.35;;;17.60;99.90;;;;;;5053965;28;20029;-62
2022/07/10 04:44:34;;;;;;;3.20;1.40;;;17.60;99.90;;;;;;5051976;28;20474;-63
2022/07/10 04:47:00;;;;;;;3.88;1.25;;;17.60;99.90;;;;;;5053643;28;20216;-62
2022/07/10 04:49:26;;;;;;;8.63;1.83;;;17.50;99.90;;;;;;5053184;28;20039;-62
2022/07/10 04:51:52;;;;;;;3.22;1.30;;;17.40;99.90;;;;;;5053465;28;20028;-62
2022/07/10 04:54:17;;;;;;;6.90;1.65;;;17.40;99.90;;;;;;5053289;28;20490;-62
2022/07/10 04:56:43;;;;;;;11.30;1.67;;;17.40;99.90;;;;;;5052370;28;20029;-63
2022/07/10 04:59:09;;;;;;;7.18;1.67;;;17.40;99.90;;;;;;5051994;28;20551;-62
2022/07/10 05:01:39;;;;;;;4.68;2.10;;;17.30;99.90;;;;;;5052140;28;20033;-61
2022/07/10 05:04:05;;;;;;;3.00;1.25;;;17.20;99.90;;;;;;5053440;28;20017;-63
2022/07/10 05:06:31;;;;;;;4.95;1.52;;;17.10;99.90;;;;;;5053089;28;20070;-64
2022/07/10 05:08:56;;;;;;;4.38;1.27;;;17.20;99.90;;;;;;5053268;28;20036;-63
2022/07/10 05:11:23;;;;;;;4.00;1.20;;;17.30;99.90;;;;;;5053285;28;20031;-67
2022/07/10 05:13:49;;;;;;;3.35;1.35;;;17.30;99.90;;;;;;5053106;28;20037;-65
2022/07/10 05:16:15;;;;;;;4.50;1.40;;;17.40;99.90;;;;;;5053180;28;20117;-65
2022/07/10 05:18:41;;;;;;;2.47;1.30;;;17.30;99.90;;;;;;5051785;28;20079;-65
2022/07/10 05:21:07;;;;;;;3.17;1.40;;;17.40;99.90;;;;;;5053689;28;20021;-65
2022/07/10 05:23:32;;;;;;;4.82;1.33;;;17.40;99.90;;;;;;5052254;28;20036;-65
2022/07/10 05:25:58;;;;;;;2.35;1.15;;;17.30;99.90;;;;;;5053908;28;20075;-65
2022/07/10 05:28:23;;;;;;;3.28;1.25;;;17.30;99.90;;;;;;5052305;28;20037;-65
2022/07/10 05:30:49;;;;;;;6.70;1.37;;;17.20;99.90;;;;;;5052660;28;20033;-64
2022/07/10 05:33:16;;;;;;;3.13;1.33;;;17.20;99.90;;;;;;5052654;28;20640;-64
2022/07/10 05:35:41;;;;;;;7.28;1.30;;;17.30;99.90;;;;;;5054523;28;20252;-65
2022/07/10 05:38:07;;;;;;;4.50;1.30;;;17.50;99.90;;;;;;5057310;28;20021;-65
2022/07/10 05:40:33;;;;;;;6.70;1.67;;;17.50;99.90;;;;;;5055846;28;20037;-65
2022/07/10 05:42:58;;;;;;;5.03;1.50;;;17.40;99.90;;;;;;5055704;28;20025;-65
2022/07/10 05:45:24;;;;;;;6.95;1.60;;;17.40;99.90;;;;;;5057032;28;20037;-65
2022/07/10 05:47:50;;;;;;;6.50;1.60;;;17.50;99.90;;;;;;5056968;28;20487;-65
2022/07/10 05:50:16;;;;;;;6.60;1.02;;;17.60;99.90;;;;;;5057438;28;20140;-62
2022/07/10 05:52:42;;;;;;;4.03;1.30;;;17.70;99.90;;;;;;5056478;28;20068;-62
2022/07/10 05:55:08;;;;;;;4.20;1.08;;;17.70;99.90;;;;;;5057330;28;20103;-64
2022/07/10 05:57:34;;;;;;;4.57;1.48;;;17.70;99.90;;;;;;5057209;28;20028;-63
2022/07/10 06:00:00;;;;;;;6.32;1.40;;;17.60;99.90;;;;;;5056909;28;20025;-63
2022/07/10 06:02:26;;;;;;;3.30;1.15;;;17.70;99.90;;;;;;5057240;28;20375;-63
2022/07/10 06:04:51;;;;;;;4.85;1.42;;;17.70;99.90;;;;;;5057702;28;20032;-64
2022/07/10 06:07:17;;;;;;;4.43;1.23;;;17.90;99.90;;;;;;5055439;28;20504;-63
2022/07/10 06:09:42;;;;;;;3.28;1.40;;;18.00;99.90;;;;;;5056590;28;20028;-64
2022/07/10 06:12:08;;;;;;;5.72;1.30;;;18.00;99.90;;;;;;5057516;28;20025;-63
2022/07/10 06:14:34;;;;;;;3.80;1.23;;;18.10;99.90;;;;;;5056367;28;20024;-64
2022/07/10 06:17:00;;;;;;;4.40;1.60;;;18.20;99.90;;;;;;5056248;28;20482;-64
2022/07/10 06:19:25;;;;;;;4.30;1.23;;;18.20;99.90;;;;;;5056344;28;20017;-64
2022/07/10 06:22:30;;;;;;;5.47;1.30;;;18.30;99.90;;;;;;5056071;28;20029;-63
2022/07/10 06:24:38;;;;;;;5.88;1.75;;;18.10;99.90;;;;;;5055691;28;20028;-63
2022/07/10 06:27:04;;;;;;;2.95;1.35;;;17.90;99.90;;;;;;5057643;28;20087;-63
2022/07/10 06:29:30;;;;;;;4.88;1.30;;;17.80;99.90;;;;;;5054959;28;20021;-63
2022/07/10 06:31:56;;;;;;;3.85;1.35;;;17.70;99.90;;;;;;5056271;28;20032;-62
2022/07/10 06:34:21;;;;;;;8.63;1.60;;;17.70;99.90;;;;;;5056318;28;20053;-62
2022/07/10 06:36:47;;;;;;;2.42;1.23;;;17.80;99.90;;;;;;5058038;28;20021;-63
2022/07/10 06:39:12;;;;;;;3.53;1.55;;;18.00;99.90;;;;;;5056091;28;20029;-63
2022/07/10 06:41:38;;;;;;;5.77;2.20;;;18.20;99.90;;;;;;5054833;28;20330;-63
2022/07/10 06:44:04;;;;;;;5.75;1.60;;;18.40;99.90;;;;;;5055441;28;20271;-62
2022/07/10 06:46:30;;;;;;;2.90;1.38;;;18.40;99.90;;;;;;5055618;28;20029;-63
2022/07/10 06:48:55;;;;;;;3.97;1.30;;;18.30;99.90;;;;;;5055945;28;20064;-62
2022/07/10 06:51:21;;;;;;;2.65;1.30;;;18.20;99.90;;;;;;5057138;28;20033;-61
2022/07/10 06:53:47;;;;;;;2.25;1.20;;;18.20;99.90;;;;;;5056855;28;20036;-62
2022/07/10 06:56:15;;;;;;;2.38;1.25;;;18.20;99.90;;;;;;5055997;28;20029;-62
2022/07/10 06:58:40;;;;;;;5.28;0.98;;;18.20;99.90;;;;;;5055768;28;20424;-62
2022/07/10 07:01:06;;;;;;;8.13;1.67;;;18.30;99.90;;;;;;5054165;28;20071;-62
2022/07/10 07:03:31;;;;;;;4.72;1.55;;;18.30;99.90;;;;;;5054931;28;20029;-62
2022/07/10 07:05:57;;;;;;;3.75;1.00;;;18.30;99.90;;;;;;5057073;28;20029;-62
2022/07/10 07:08:22;;;;;;;6.38;1.20;;;18.30;99.90;;;;;;5055870;28;20108;-62
2022/07/10 07:10:48;;;;;;;7.07;1.48;;;18.50;99.90;;;;;;5055579;28;20416;-62
2022/07/10 07:13:14;;;;;;;5.68;1.33;;;18.40;99.90;;;;;;5054080;28;20520;-62
2022/07/10 07:15:42;;;;;;;6.35;1.80;;;18.30;99.90;;;;;;5055360;28;20474;-64
2022/07/10 07:18:08;;;;;;;6.35;1.60;;;18.30;99.90;;;;;;5055453;28;20099;-63
2022/07/10 07:23:19;;;;;;;3.95;1.40;;;18.30;99.90;;;;;;5055318;28;20120;-62
2022/07/10 07:25:48;;;;;;;;;;;18.40;99.90;;;;;;5056236;28;20025;-62
2022/07/10 07:28:15;;;;;;;2.85;1.10;;;18.40;99.90;;;;;;5055098;28;20362;-62
2022/07/10 07:30:42;;;;;;;3.85;1.40;;;18.50;99.90;;;;;;5054937;28;20029;-62
2022/07/10 07:33:08;;;;;;;3.65;1.15;;;18.60;99.90;;;;;;5053612;28;20079;-62
2022/07/10 07:35:33;;;;;;;7.60;1.67;;;18.70;99.90;;;;;;5054907;28;20021;-62
2022/07/10 07:38:02;;;;;;;4.60;0.90;;;18.60;99.50;;;;;;5053478;28;20098;-62
2022/07/10 07:40:28;;;;;;;3.55;1.85;;;18.80;99.30;;;;;;5054698;28;20021;-63
2022/07/10 07:42:55;;;;;;;3.75;1.10;;;18.90;99.30;;;;;;5054522;28;20025;-63
2022/07/10 07:45:22;;;;;;;5.10;1.33;;;19.00;99.00;;;;;;5054228;28;20397;-62
2022/07/10 07:47:59;;;;;;;4.45;1.02;;;19.00;98.80;;;;;;5053017;28;20053;-63
2022/07/10 07:50:27;;;;;;;8.65;2.33;;;19.20;98.10;;;;;;5053098;28;20029;-63
2022/07/10 07:52:53;;;;;;;2.28;0.80;;;19.40;97.40;;;;;;5053109;28;20029;-63
2022/07/10 07:55:20;;;;;;;4.72;1.70;;;19.60;97.30;;;;;;5054918;28;20033;-63
2022/07/10 07:57:46;;;;;;;6.78;1.70;;;19.70;97.20;;;;;;5053286;28;20371;-63
2022/07/10 08:00:12;;;;;;;;;;;19.90;97.00;;;;;;5054646;28;20458;-62
2022/07/10 08:02:39;;;;;;;5.20;1.20;;;20.00;96.00;;;;;;5053949;28;19912;-62
2022/07/10 08:05:05;;;;;;;6.50;1.70;;;20.20;96.00;;;;;;5053685;28;20067;-62
2022/07/10 08:07:34;;;;;;;;;;;20.40;95.40;;;;;;5054364;28;20032;-62
2022/07/10 08:10:00;;;;;;;3.35;1.13;;;20.60;95.00;;;;;;5054447;28;19999;-63
2022/07/10 08:12:25;;;;;;;4.30;0.90;;;20.50;94.50;;;;;;5054672;28;20106;-63
2022/07/10 08:14:51;;;;;;;2.05;1.00;;;20.70;94.60;;;;;;5053693;28;20064;-63
2022/07/10 08:17:19;;;;;;;3.58;0.98;;;20.60;94.30;;;;;;5054491;28;20025;-63
2022/07/10 08:19:48;;;;;;;2.30;1.00;;;20.60;93.80;;;;;;5054553;28;20032;-62
2022/07/10 08:22:18;;;;;;;4.15;1.23;;;20.70;94.00;;;;;;5053109;28;20108;-63
2022/07/10 08:24:44;;;;;;;5.03;1.00;;;20.80;93.60;;;;;;5053037;28;20020;-62
2022/07/10 08:27:10;;;;;;;4.85;1.05;;;20.60;93.80;;;;;;5055006;28;20029;-63
2022/07/10 08:29:38;;;;;;;;;;;20.50;93.60;;;;;;5055318;28;20052;-62
2022/07/10 08:32:05;;;;;;;4.00;1.10;;;20.60;93.70;;;;;;5054829;28;19905;-61
2022/07/10 08:34:32;;;;;;;4.30;1.27;;;20.80;92.60;;;;;;5055998;28;20021;-60
2022/07/10 08:36:58;;;;;;;5.20;1.08;;;21.50;92.20;;;;;;5054791;28;20024;-61
2022/07/10 08:39:24;;;;;;;3.95;0.90;;;22.70;90.40;;;;;;5053854;28;20021;-61
2022/07/10 08:41:50;;;;;;;2.83;0.80;;;22.90;89.40;;;;;;5052996;28;20519;-61
2022/07/10 08:44:17;;;;;;;5.20;1.00;;;22.80;89.60;;;;;;5053943;28;20029;-61
2022/07/10 08:46:43;;;;;;;7.13;1.00;;;23.60;87.50;;;;;;5053961;28;20032;-61
2022/07/10 08:49:11;;;;;;;3.03;0.88;;;24.60;84.80;;;;;;5053876;28;20435;-61
2022/07/10 08:51:44;;;;;;;2.50;1.05;;;24.60;83.00;;;;;;5052479;28;20113;-61
2022/07/10 08:54:15;;;;;;;4.50;1.25;;;23.80;83.20;;;;;;5053464;28;20032;-62
2022/07/10 08:56:41;;;;;;;3.38;1.00;;;23.40;84.70;;;;;;5054107;28;20028;-63
2022/07/10 08:59:07;;;;;;;;;;;23.30;84.10;;;;;;5054215;28;20021;-62
2022/07/10 09:01:33;;;;;;;2.60;0.90;;;23.10;84.00;;;;;;5054059;28;20419;-62
2022/07/10 09:03:58;;;;;;;;;;;22.70;84.70;;;;;;5054981;28;20025;-62
2022/07/10 09:06:24;;;;;;;2.90;0.90;;;22.80;83.90;;;;;;5053403;28;19904;-62
2022/07/10 09:09:04;;;;;;;;;;;22.60;84.30;;;;;;5054707;28;20036;-62
2022/07/10 09:11:30;;;;;;;3.67;0.98;;;22.50;83.30;;;;;;5057582;28;19999;-63
2022/07/10 09:14:08;;;;;;;2.88;0.82;;;22.40;83.70;;;;;;5057225;28;20032;-63
2022/07/10 09:16:38;;;;;;;3.15;0.80;;;22.80;82.60;;;;;;5055917;28;20052;-61
2022/07/10 09:19:16;;;;;;;1.75;0.70;;;24.50;78.00;;;;;;5057184;28;20074;-63
2022/07/10 09:21:42;;;;;;;2.42;0.70;;;24.60;75.80;;;;;;5055831;28;20021;-63
2022/07/10 09:24:08;;;;;;;;;;;24.10;77.30;;;;;;5057491;28;20024;-64
2022/07/10 09:26:36;;;;;;;2.30;0.50;;;24.70;76.30;;;;;;5057059;28;20354;-63
2022/07/10 09:29:09;;;;;;;2.97;0.70;;;26.40;73.20;;;;;;5055518;28;20029;-61
2022/07/10 09:31:55;;;;;;;3.67;0.93;;;28.80;69.00;;;;;;5056543;28;20032;-63
2022/07/10 09:34:40;;;;;;;2.33;0.50;;;30.20;64.20;;;;;;5056614;28;20033;-63
2022/07/10 09:37:30;;;;;;;1.20;0.77;;;29.80;63.20;;;;;;5056877;28;20075;-65
2022/07/10 09:39:59;;;;;;;3.55;0.63;;;31.30;60.00;;;;;;5055483;28;20056;-64
2022/07/10 09:42:30;;;;;;;2.45;0.60;;;31.70;58.60;;;;;;5057179;28;20424;-64
2022/07/10 09:45:19;;;;;;;1.88;0.70;;;30.60;57.90;;;;;;5056747;28;20039;-64
2022/07/10 09:47:56;;;;;;;3.13;1.13;;;29.50;60.20;;;;;;5053298;28;20037;-64
2022/07/10 09:50:34;;;;;;;2.10;0.63;;;29.70;59.10;;;;;;5056876;28;20083;-64
2022/07/10 09:53:01;;;;;;;3.38;0.88;;;30.90;57.40;;;;;;5056011;28;20401;-64
2022/07/10 09:55:31;;;;;;;4.53;0.90;;;31.90;56.50;;;;;;5056328;28;20024;-64
2022/07/10 09:58:03;;;;;;;3.50;1.65;;;32.80;55.20;;;;;;5056676;28;20112;-65
2022/07/10 10:00:31;;;;;;;3.10;0.90;;;33.80;53.90;;;;;;5056933;28;20627;-67
2022/07/10 10:03:02;;;;;;;3.40;0.88;;;33.10;53.00;;;;;;5056374;28;20138;-62
2022/07/10 10:05:49;;;;;;;3.50;0.65;;;33.50;53.10;;;;;;5056057;28;20025;-63
2022/07/10 10:08:19;;;;;;;1.60;0.63;;;33.90;51.70;;;;;;5055435;28;20063;-64
2022/07/10 10:10:47;;;;;;;1.92;0.60;;;33.20;52.00;;;;;;5056431;28;20071;-64
2022/07/10 10:13:18;;;;;;;3.08;0.95;;;33.20;51.70;;;;;;5056451;28;20025;-64
2022/07/10 10:15:45;;;;;;;2.28;0.70;;;33.60;51.30;;;;;;5056537;28;20021;-63
2022/07/10 10:18:12;;;;;;;4.25;0.88;;;34.00;50.40;;;;;;5056459;28;20025;-63
2022/07/10 10:20:41;;;;;;;1.42;0.70;;;33.20;50.20;;;;;;5055865;28;20358;-64
2022/07/10 10:23:12;;;;;;;1.50;0.60;;;33.30;51.20;;;;;;5057340;28;20029;-63
2022/07/10 10:25:38;;;;;;;2.40;0.75;;;32.10;50.70;;;;;;5055638;28;20027;-64
2022/07/10 10:28:07;;;;;;;3.95;0.98;;;32.10;51.40;;;;;;5057013;28;20029;-64
2022/07/10 10:30:36;;;;;;;1.73;0.77;;;32.10;51.30;;;;;;5058305;28;20028;-63
2022/07/10 10:33:02;;;;;;;5.22;0.80;;;32.50;51.00;;;;;;5056225;28;20083;-64
2022/07/10 10:35:47;;;;;;;2.22;0.90;;;33.20;50.80;;;;;;5056183;28;20477;-64
2022/07/10 10:38:15;;;;;;;2.10;0.60;;;33.30;49.90;;;;;;5057799;28;20032;-66
2022/07/10 10:40:41;;;;;;;2.50;0.70;;;33.20;48.90;;;;;;5057353;28;20017;-65
2022/07/10 10:43:17;;;;;;;1.10;0.55;;;33.00;49.90;;;;;;5058196;28;20111;-66
2022/07/10 10:45:44;;;;;;;178.75;115.00;;;32.50;50.00;;;;;;5055723;28;20075;-61
2022/07/10 10:48:12;;;;;;;1.85;1.10;;;33.20;50.40;;;;;;5056240;28;20029;-64
2022/07/10 10:50:41;;;;;;;2.20;0.85;;;33.80;48.60;;;;;;5055575;28;20082;-64
2022/07/10 10:53:27;;;;;;;2.72;1.00;;;34.50;48.50;;;;;;5054396;28;20402;-64
2022/07/10 10:56:05;;;;;;;2.17;0.88;;;34.30;47.80;;;;;;5055828;28;20029;-64
2022/07/10 10:58:41;;;;;;;3.63;0.70;;;34.30;47.90;;;;;;5054550;28;20055;-64
2022/07/10 11:01:25;;;;;;;1.75;0.60;;;34.70;48.00;;;;;;5053945;28;20108;-64
2022/07/10 11:04:12;;;;;;;1.17;0.63;;;34.70;47.60;;;;;;5055947;28;20027;-64
2022/07/10 11:06:53;;;;;;;2.30;1.00;;;34.50;47.90;;;;;;5055390;28;20079;-64
2022/07/10 11:09:29;;;;;;;3.25;0.93;;;34.80;47.60;;;;;;5055279;28;20029;-63
2022/07/10 11:12:08;;;;;;;2.45;0.85;;;34.40;48.20;;;;;;5054558;28;20052;-64
2022/07/10 11:14:39;;;;;;;1.38;0.60;;;34.30;47.90;;;;;;5053692;28;20025;-63
2022/07/10 11:17:06;;;;;;;2.25;0.82;;;32.40;48.30;;;;;;5055340;28;20025;-64
2022/07/10 11:19:33;;;;;;;1.83;0.50;;;29.60;50.80;;;;;;5054912;28;20096;-63
2022/07/10 11:22:06;;;;;;;2.20;0.80;;;27.80;52.60;;;;;;5055339;28;20108;-63
2022/07/10 11:24:41;;;;;;;1.30;0.57;;;26.40;54.60;;;;;;5054769;28;20397;-63
2022/07/10 11:27:24;;;;;;;2.70;0.80;;;25.30;56.30;;;;;;5055115;28;20017;-63
2022/07/10 11:30:00;;;;;;;3.67;0.90;;;24.90;57.40;;;;;;5055498;28;20112;-64
2022/07/10 11:32:26;;;;;;;2.97;0.70;;;24.70;57.60;;;;;;5052920;28;20059;-64
2022/07/10 11:34:52;;;;;;;2.55;0.70;;;24.30;58.00;;;;;;5061586;22;20132;-63
2022/07/10 11:37:17;;;;;;;;;;;24.20;58.40;;;;;;5036078;28;20072;-63
2022/07/10 11:39:43;;;;;;;5.22;1.10;;;24.10;58.10;;;;;;5035509;28;20071;-62
2022/07/10 11:42:09;;;;;;;;;;;24.00;58.70;;;;;;5035331;28;20465;-63
2022/07/10 11:44:34;;;;;;;3.22;1.95;;;24.00;58.50;;;;;;5035259;28;20277;-63
2022/07/10 11:47:02;;;;;;;;;;;23.90;58.40;;;;;;5035901;28;20025;-63
2022/07/10 11:49:28;;;;;;;3.08;0.93;;;23.90;58.80;;;;;;5034871;28;20004;-60
2022/07/10 11:51:56;;;;;;;3.60;1.23;;;23.70;58.80;;;;;;5034677;28;20094;-61
2022/07/10 11:54:21;;;;;;;6.85;0.70;;;23.40;59.50;;;;;;5034282;28;20034;-62
2022/07/10 11:56:49;;;;;;;5.05;1.13;;;23.20;59.90;;;;;;5034505;28;20063;-62
2022/07/10 11:59:16;;;;;;;3.00;0.63;;;23.00;60.70;;;;;;5033008;28;20031;-62
2022/07/10 12:01:49;;;;;;;3.78;0.60;;;22.80;60.20;;;;;;5033327;28;20022;-62
2022/07/10 12:04:17;;;;;;;4.40;0.93;;;22.90;61.00;;;;;;5034255;28;20029;-61
2022/07/10 12:06:46;;;;;;;2.30;0.50;;;22.50;61.20;;;;;;5034077;28;20033;-62
2022/07/10 12:09:18;;;;;;;3.03;0.80;;;22.20;61.90;;;;;;5034463;28;20029;-63
2022/07/10 12:11:57;;;;;;;5.70;0.77;;;22.30;62.80;;;;;;5033300;28;20021;-62
2022/07/10 12:14:22;;;;;;;2.45;0.77;;;22.60;62.40;;;;;;5034956;28;20120;-62
2022/07/10 12:16:53;;;;;;;5.50;0.77;;;22.70;62.20;;;;;;5033550;28;20057;-63
2022/07/10 12:19:22;;;;;;;2.65;0.65;;;22.90;60.90;;;;;;5034925;28;20036;-62
2022/07/10 12:21:48;;;;;;;1.92;0.80;;;22.70;61.20;;;;;;5035076;28;20044;-61
2022/07/10 12:24:19;;;;;;;;;;;22.50;62.10;;;;;;5036350;28;20060;-61
2022/07/10 12:26:45;;;;;;;3.05;0.68;;;22.50;62.20;;;;;;5036001;28;19909;-62
2022/07/10 12:29:24;;;;;;;2.33;0.73;;;22.40;62.50;;;;;;5035728;28;20040;-62
2022/07/10 12:31:52;;;;;;;5.35;1.00;;;22.60;61.80;;;;;;5034519;28;20053;-62
2022/07/10 12:34:18;;;;;;;2.10;0.80;;;22.70;62.00;;;;;;5035182;28;20044;-62
2022/07/10 12:36:45;;;;;;;;;;;22.90;62.20;;;;;;5035386;28;20051;-63
2022/07/10 12:39:13;;;;;;;6.40;0.70;;;22.90;61.40;;;;;;5036399;28;20277;-64
2022/07/10 12:42:02;;;;;;;3.13;0.70;;;22.80;61.60;;;;;;5036070;28;20025;-63
2022/07/10 12:44:47;;;;;;;2.53;0.70;;;22.90;61.50;;;;;;5035977;28;20033;-62
2022/07/10 12:47:18;;;;;;;3.00;0.70;;;22.80;61.40;;;;;;5036831;28;20083;-62
2022/07/10 12:50:06;;;;;;;4.43;0.73;;;22.70;61.80;;;;;;5036335;28;20056;-63
2022/07/10 12:52:33;;;;;;;3.70;0.70;;;22.50;61.80;;;;;;5035345;28;20079;-62
2022/07/10 12:55:13;;;;;;;2.25;0.60;;;22.40;62.60;;;;;;5035077;28;20129;-61
2022/07/10 12:57:54;;;;;;;3.33;0.70;;;22.40;62.90;;;;;;5034179;28;20022;-61
2022/07/10 13:00:30;;;;;;;1.63;0.55;;;22.50;62.30;;;;;;5034293;28;20021;-63